Time;durP1;ratioP1;P1;durP2;ratioP2;P2;SDS_P1;SDS_P2;PMS_P1;PMS_P2;Temp;Humidity;BMP_temperature;BMP_pressure;BME280_temperature;BME280_humidity;BME280_pressure;Samples;Min_cycle;Max_cycle;Signal;HPM_P1;HPM_P2
2022/12/13 00:01:37;;;;;;;52.00;17.83;;;2.10;90.30;;;;;;5089635;28;20118;-59
2022/12/13 00:04:04;;;;;;;55.38;18.77;;;2.20;90.30;;;;;;5124709;28;20036;-59
2022/12/13 00:06:30;;;;;;;46.83;17.67;;;2.20;90.30;;;;;;5124795;28;20031;-58
2022/12/13 00:08:55;;;;;;;53.05;18.02;;;2.10;90.30;;;;;;5124830;28;20039;-58
2022/12/13 00:11:21;;;;;;;39.58;16.08;;;2.20;90.40;;;;;;5106823;28;20087;-58
2022/12/13 00:13:47;;;;;;;46.28;16.73;;;2.10;90.60;;;;;;5124804;28;20080;-58
2022/12/13 00:16:17;;;;;;;54.00;17.20;;;2.10;90.30;;;;;;5109405;28;20026;-58
2022/12/13 00:18:43;;;;;;;43.83;17.17;;;2.10;90.30;;;;;;5110723;28;20027;-59
2022/12/13 00:21:12;;;;;;;45.33;17.20;;;2.10;90.40;;;;;;5093069;28;20099;-58
2022/12/13 00:23:37;;;;;;;45.58;17.05;;;2.10;90.40;;;;;;5093183;28;20060;-58
2022/12/13 00:26:04;;;;;;;43.15;16.92;;;2.10;90.40;;;;;;5110043;28;20489;-58
2022/12/13 00:28:30;;;;;;;43.63;15.40;;;2.10;90.50;;;;;;5128525;28;20500;-58
2022/12/13 00:30:59;;;;;;;41.08;15.55;;;2.10;90.50;;;;;;5129218;28;20031;-58
2022/12/13 00:33:25;;;;;;;44.53;17.00;;;2.00;90.50;;;;;;5128830;28;20074;-58
2022/12/13 00:35:50;;;;;;;38.00;14.88;;;2.00;90.50;;;;;;5109767;28;20024;-58
2022/12/13 00:38:16;;;;;;;41.85;15.68;;;2.00;90.50;;;;;;5092648;28;20036;-58
2022/12/13 00:40:41;;;;;;;30.80;14.70;;;2.00;90.50;;;;;;5109445;28;20031;-58
2022/12/13 00:43:07;;;;;;;39.42;15.90;;;2.00;90.50;;;;;;5109689;28;20036;-58
2022/12/13 00:45:33;;;;;;;41.45;16.08;;;2.00;90.80;;;;;;5092593;28;20431;-59
2022/12/13 00:47:59;;;;;;;35.25;16.95;;;2.00;90.60;;;;;;5109424;28;20028;-58
2022/12/13 00:50:24;;;;;;;38.30;16.15;;;2.00;90.60;;;;;;5127863;28;20058;-58
2022/12/13 00:52:50;;;;;;;38.67;17.55;;;2.00;90.60;;;;;;5092374;28;20035;-58
2022/12/13 00:55:15;;;;;;;41.28;17.52;;;2.00;90.60;;;;;;5127872;28;20038;-58
2022/12/13 00:57:41;;;;;;;42.92;18.42;;;2.00;90.60;;;;;;5109517;28;20028;-58
2022/12/13 01:00:07;;;;;;;35.83;17.55;;;2.00;90.60;;;;;;5127539;28;20092;-59
2022/12/13 01:02:32;;;;;;;38.65;18.92;;;2.00;90.60;;;;;;5092181;28;20143;-58
2022/12/13 01:04:58;;;;;;;39.70;17.27;;;2.00;90.60;;;;;;5109158;28;20031;-59
2022/12/13 01:07:24;;;;;;;39.92;18.05;;;2.00;90.60;;;;;;5109109;28;20027;-59
2022/12/13 01:09:49;;;;;;;36.20;17.13;;;2.00;90.60;;;;;;5109299;28;20054;-58
2022/12/13 01:12:15;;;;;;;38.22;16.60;;;2.00;90.70;;;;;;5127587;28;20043;-58
2022/12/13 01:14:40;;;;;;;31.08;16.38;;;1.90;90.70;;;;;;5092105;28;20047;-58
2022/12/13 01:17:06;;;;;;;32.95;16.52;;;1.90;90.70;;;;;;5108996;28;20122;-58
2022/12/13 01:19:32;;;;;;;30.67;15.93;;;1.90;90.70;;;;;;5108908;28;20031;-58
2022/12/13 01:21:59;;;;;;;35.88;17.35;;;1.90;90.70;;;;;;5108941;28;20020;-58
2022/12/13 01:24:24;;;;;;;26.48;15.85;;;1.90;90.60;;;;;;5127180;28;20024;-58
2022/12/13 01:26:50;;;;;;;27.80;16.25;;;1.90;90.60;;;;;;5107834;28;20027;-58
2022/12/13 01:29:17;;;;;;;26.17;16.00;;;1.90;90.60;;;;;;5092220;28;20039;-58
2022/12/13 01:31:42;;;;;;;29.85;15.82;;;1.90;90.60;;;;;;5127094;28;20024;-58
2022/12/13 01:34:11;;;;;;;37.70;16.80;;;1.90;90.70;;;;;;5108797;28;20058;-58
2022/12/13 01:36:38;;;;;;;39.58;17.15;;;1.90;90.70;;;;;;5126994;28;20020;-58
2022/12/13 01:39:04;;;;;;;28.70;16.38;;;1.90;90.70;;;;;;5108500;28;20103;-58
2022/12/13 01:41:31;;;;;;;27.08;16.20;;;1.90;90.70;;;;;;5109392;28;20096;-58
2022/12/13 01:43:59;;;;;;;39.50;17.73;;;1.90;90.70;;;;;;5108721;28;20032;-58
2022/12/13 01:46:25;;;;;;;31.20;16.70;;;1.90;90.70;;;;;;5108716;28;20031;-58
2022/12/13 01:48:54;;;;;;;32.55;16.90;;;1.90;90.70;;;;;;5108375;28;20058;-59
2022/12/13 01:51:22;;;;;;;29.05;16.55;;;1.80;90.70;;;;;;5074711;28;20079;-58
2022/12/13 01:53:47;;;;;;;25.10;16.40;;;1.80;90.70;;;;;;5091427;28;20031;-58
2022/12/13 01:56:17;;;;;;;35.85;16.50;;;1.80;90.70;;;;;;5108044;28;20035;-58
2022/12/13 01:58:42;;;;;;;25.52;16.52;;;1.80;90.70;;;;;;5074688;28;20024;-59
2022/12/13 02:01:08;;;;;;;31.05;16.52;;;1.90;90.70;;;;;;5091373;28;20031;-58
2022/12/13 02:03:33;;;;;;;29.02;16.08;;;1.80;90.70;;;;;;5091226;28;20032;-58
2022/12/13 02:06:02;;;;;;;23.48;15.52;;;1.80;90.70;;;;;;5091172;28;20406;-58
2022/12/13 02:08:28;;;;;;;27.42;15.85;;;1.80;90.70;;;;;;5091237;28;20056;-58
2022/12/13 02:10:54;;;;;;;34.08;16.77;;;1.80;90.70;;;;;;5107957;28;20110;-58
2022/12/13 02:13:19;;;;;;;29.45;15.27;;;1.80;90.70;;;;;;5091081;28;20020;-58
2022/12/13 02:16:19;;;;;;;32.90;16.33;;;1.80;90.70;;;;;;5090739;28;20035;-58
2022/12/13 02:18:53;;;;;;;26.98;15.40;;;1.80;90.70;;;;;;5126136;28;20038;-58
2022/12/13 02:21:22;;;;;;;25.42;15.90;;;1.80;90.70;;;;;;5126074;28;20027;-58
2022/12/13 02:24:05;;;;;;;30.33;15.52;;;1.80;90.70;;;;;;5090971;28;20036;-58
2022/12/13 02:27:00;;;;;;;23.33;14.20;;;1.80;90.70;;;;;;5107703;28;20406;-58
2022/12/13 02:29:37;;;;;;;22.00;14.45;;;1.70;90.60;;;;;;5118451;28;20115;-58
2022/12/13 02:32:25;;;;;;;27.55;14.48;;;1.70;90.70;;;;;;5126108;28;20035;-58
2022/12/13 02:34:59;;;;;;;26.00;15.70;;;1.70;90.70;;;;;;5107921;28;20028;-59
2022/12/13 02:38:01;;;;;;;28.27;14.70;;;1.70;90.70;;;;;;5108492;28;20023;-58
2022/12/13 02:41:10;;;;;;;24.85;14.35;;;1.70;90.70;;;;;;5093383;28;20083;-58
2022/12/13 02:43:47;;;;;;;28.67;15.88;;;1.70;90.70;;;;;;5091528;28;20181;-58
2022/12/13 02:46:15;;;;;;;22.70;14.20;;;1.70;90.70;;;;;;5074057;28;20066;-59
2022/12/13 02:48:41;;;;;;;27.67;16.15;;;1.70;90.80;;;;;;5090473;28;20036;-58
2022/12/13 02:51:07;;;;;;;26.52;15.35;;;1.70;90.80;;;;;;5090145;28;20020;-58
2022/12/13 02:53:33;;;;;;;24.17;15.52;;;1.70;90.80;;;;;;5090557;28;20031;-58
2022/12/13 02:56:00;;;;;;;23.02;15.18;;;1.70;90.80;;;;;;5090677;28;20051;-58
2022/12/13 02:58:28;;;;;;;24.15;15.88;;;1.70;90.80;;;;;;5107176;28;20019;-59
2022/12/13 03:01:20;;;;;;;28.52;14.68;;;1.70;90.70;;;;;;5107197;28;20036;-58
2022/12/13 03:03:51;;;;;;;27.85;15.98;;;1.70;90.70;;;;;;5108947;28;20074;-58
2022/12/13 03:06:35;;;;;;;23.38;14.95;;;1.70;90.70;;;;;;5107077;28;20111;-59
2022/12/13 03:09:43;;;;;;;26.40;15.75;;;1.60;90.70;;;;;;5125245;28;20028;-58
2022/12/13 03:15:35;;;;;;;22.85;13.88;;;1.70;90.70;;;;;;5096387;28;20019;-59
2022/12/13 03:18:14;;;;;;;28.95;14.75;;;1.60;90.60;;;;;;5074467;28;20115;-58
2022/12/13 03:20:47;;;;;;;23.40;14.50;;;1.70;90.70;;;;;;5092264;28;20103;-58
2022/12/13 03:23:13;;;;;;;24.13;15.45;;;1.70;90.70;;;;;;5090736;28;20028;-58
2022/12/13 03:25:39;;;;;;;26.48;15.00;;;1.70;90.70;;;;;;5107027;28;20058;-58
2022/12/13 03:28:04;;;;;;;26.00;15.32;;;1.60;90.70;;;;;;5089990;28;20036;-58
2022/12/13 03:30:30;;;;;;;27.20;13.48;;;1.70;90.70;;;;;;5090048;28;20068;-58
2022/12/13 03:32:56;;;;;;;25.48;14.98;;;1.60;90.70;;;;;;5125223;28;20028;-58
2022/12/13 03:35:21;;;;;;;24.88;15.35;;;1.70;90.70;;;;;;5089973;28;20031;-58
2022/12/13 03:37:47;;;;;;;31.77;15.10;;;1.60;90.70;;;;;;5072984;28;20024;-58
2022/12/13 03:40:13;;;;;;;22.45;14.75;;;1.60;90.70;;;;;;5106741;28;20088;-58
2022/12/13 03:42:38;;;;;;;24.90;14.65;;;1.60;90.70;;;;;;5106646;28;20020;-58
2022/12/13 03:45:04;;;;;;;27.50;14.50;;;1.60;90.60;;;;;;5072869;28;20039;-58
2022/12/13 03:47:30;;;;;;;26.52;13.18;;;1.60;90.50;;;;;;5106459;28;20042;-58
2022/12/13 03:49:56;;;;;;;18.95;12.48;;;1.60;90.60;;;;;;5090843;28;20047;-58
2022/12/13 03:52:21;;;;;;;24.50;13.23;;;1.60;90.70;;;;;;5093157;28;20028;-58
2022/12/13 03:54:47;;;;;;;24.55;13.88;;;1.60;90.90;;;;;;5110448;28;20024;-58
2022/12/13 03:57:14;;;;;;;23.27;13.52;;;1.60;90.90;;;;;;5110599;28;20455;-58
2022/12/13 03:59:40;;;;;;;19.27;12.70;;;1.60;91.00;;;;;;5128738;28;20476;-58
2022/12/13 04:02:05;;;;;;;21.90;13.35;;;1.60;91.00;;;;;;5093507;28;20034;-58
2022/12/13 04:04:31;;;;;;;23.02;13.07;;;1.60;91.10;;;;;;5110327;28;20027;-58
2022/12/13 04:06:56;;;;;;;27.83;12.75;;;1.60;91.10;;;;;;5128605;28;20024;-59
2022/12/13 04:09:22;;;;;;;22.63;13.07;;;1.60;91.10;;;;;;5110661;28;20049;-58
2022/12/13 04:14:32;;;;;;;22.00;13.82;;;1.60;91.20;;;;;;5112986;28;20030;-58
2022/12/13 04:16:57;;;;;;;20.10;13.05;;;1.70;91.20;;;;;;5128580;28;20095;-58
2022/12/13 04:19:23;;;;;;;18.88;13.32;;;1.60;91.20;;;;;;5110008;28;20020;-57
2022/12/13 04:21:48;;;;;;;20.42;12.73;;;1.70;91.20;;;;;;5128329;28;20493;-58
2022/12/13 04:24:15;;;;;;;27.45;13.07;;;1.70;91.20;;;;;;5093130;28;20387;-58
2022/12/13 04:26:40;;;;;;;17.80;13.15;;;1.70;91.20;;;;;;5110031;28;20054;-58
2022/12/13 04:29:06;;;;;;;18.52;13.10;;;1.70;91.20;;;;;;5109705;28;20508;-58
2022/12/13 04:31:31;;;;;;;21.23;12.75;;;1.70;91.10;;;;;;5128233;28;20024;-58
2022/12/13 04:33:57;;;;;;;25.02;13.60;;;1.70;91.00;;;;;;5128228;28;20358;-58
2022/12/13 04:36:22;;;;;;;21.90;12.70;;;1.70;91.00;;;;;;5128053;28;20118;-59
2022/12/13 04:38:48;;;;;;;21.73;13.30;;;1.70;91.00;;;;;;5109783;28;20043;-58
2022/12/13 04:41:16;;;;;;;21.88;12.57;;;1.70;91.00;;;;;;5109578;28;20032;-58
2022/12/13 04:43:41;;;;;;;18.70;12.32;;;1.70;90.90;;;;;;5127981;28;20027;-58
2022/12/13 04:46:07;;;;;;;18.42;12.10;;;1.70;91.00;;;;;;5109496;28;20499;-59
2022/12/13 04:48:33;;;;;;;20.85;12.27;;;1.70;90.90;;;;;;5109446;28;20032;-58
2022/12/13 04:50:59;;;;;;;22.75;12.60;;;1.70;90.90;;;;;;5109173;28;20020;-58
2022/12/13 04:53:25;;;;;;;19.55;11.70;;;1.70;90.80;;;;;;5109767;28;20098;-58
2022/12/13 04:55:51;;;;;;;17.38;12.10;;;1.70;90.80;;;;;;5092533;28;20023;-59
2022/12/13 04:58:17;;;;;;;20.17;12.00;;;1.60;90.80;;;;;;5127659;28;20107;-58
2022/12/13 05:00:42;;;;;;;26.92;13.23;;;1.60;90.90;;;;;;5091927;28;20532;-58
2022/12/13 05:03:08;;;;;;;23.13;13.70;;;1.60;91.10;;;;;;5108678;28;20042;-59
2022/12/13 05:05:34;;;;;;;19.38;12.45;;;1.70;91.20;;;;;;5108798;28;20035;-58
2022/12/13 05:07:59;;;;;;;17.60;11.68;;;1.60;91.30;;;;;;5092081;28;20027;-58
2022/12/13 05:10:25;;;;;;;18.48;12.25;;;1.70;91.70;;;;;;5127362;28;20544;-58
2022/12/13 05:12:50;;;;;;;24.98;12.25;;;1.70;91.80;;;;;;5127227;28;20039;-58
2022/12/13 05:15:16;;;;;;;31.88;13.60;;;1.70;91.80;;;;;;5108828;28;20028;-58
2022/12/13 05:17:41;;;;;;;28.52;14.07;;;1.70;91.80;;;;;;5127137;28;20036;-58
2022/12/13 05:20:07;;;;;;;25.70;13.30;;;1.70;91.80;;;;;;5092129;28;20030;-58
2022/12/13 05:22:33;;;;;;;21.95;12.98;;;1.70;92.00;;;;;;5108894;28;20036;-58
2022/12/13 05:24:58;;;;;;;22.40;12.63;;;1.70;92.10;;;;;;5108564;28;20039;-58
2022/12/13 05:27:24;;;;;;;19.98;13.00;;;1.70;92.00;;;;;;5108884;28;20039;-59
2022/12/13 05:29:49;;;;;;;23.30;14.13;;;1.70;92.00;;;;;;5126870;28;20043;-58
2022/12/13 05:32:15;;;;;;;22.98;13.57;;;1.70;92.00;;;;;;5108541;28;20053;-58
2022/12/13 05:34:40;;;;;;;21.58;13.68;;;1.70;92.10;;;;;;5127192;28;20024;-58
2022/12/13 05:37:06;;;;;;;19.00;12.35;;;1.70;92.10;;;;;;5126962;28;20027;-58
2022/12/13 05:39:32;;;;;;;24.80;12.50;;;1.70;92.00;;;;;;5108374;28;20040;-58
2022/12/13 05:41:57;;;;;;;21.95;13.05;;;1.70;91.90;;;;;;5126636;28;20027;-58
2022/12/13 05:44:23;;;;;;;22.13;13.30;;;1.70;91.80;;;;;;5091603;28;20055;-58
2022/12/13 05:46:49;;;;;;;23.63;12.90;;;1.70;91.70;;;;;;5108461;28;20042;-59
2022/12/13 05:49:14;;;;;;;17.38;12.38;;;1.70;91.80;;;;;;5126542;28;20043;-59
2022/12/13 05:51:40;;;;;;;18.88;12.95;;;1.70;91.80;;;;;;5126297;28;20069;-57
2022/12/13 05:54:05;;;;;;;21.92;12.98;;;1.70;91.80;;;;;;5108271;28;20031;-58
2022/12/13 05:56:31;;;;;;;23.38;12.98;;;1.70;91.70;;;;;;5126439;28;20038;-58
2022/12/13 05:58:56;;;;;;;18.95;12.45;;;1.70;91.70;;;;;;5126498;28;20031;-58
2022/12/13 06:01:22;;;;;;;21.13;12.43;;;1.70;91.60;;;;;;5108145;28;20024;-58
2022/12/13 06:03:47;;;;;;;19.92;12.20;;;1.60;91.60;;;;;;5126234;28;20091;-59
2022/12/13 06:06:16;;;;;;;19.33;12.48;;;1.60;91.60;;;;;;5090904;28;20023;-59
2022/12/13 06:08:41;;;;;;;23.08;11.88;;;1.60;91.50;;;;;;5126378;28;20032;-58
2022/12/13 06:11:07;;;;;;;15.88;10.93;;;1.60;91.50;;;;;;5107881;28;20449;-58
2022/12/13 06:13:33;;;;;;;15.38;11.55;;;1.60;91.50;;;;;;5107145;28;20019;-58
2022/12/13 06:16:02;;;;;;;20.92;11.55;;;1.60;91.40;;;;;;5090944;28;20042;-58
2022/12/13 06:18:32;;;;;;;21.92;11.60;;;1.60;91.40;;;;;;5090954;28;20092;-58
2022/12/13 06:20:59;;;;;;;16.05;11.60;;;1.60;91.40;;;;;;5107882;28;20061;-58
2022/12/13 06:23:25;;;;;;;16.33;11.10;;;1.60;91.40;;;;;;5107707;28;20016;-59
2022/12/13 06:25:50;;;;;;;22.08;12.45;;;1.60;91.40;;;;;;5107625;28;20035;-58
2022/12/13 06:28:16;;;;;;;17.40;12.18;;;1.60;91.40;;;;;;5108104;28;20023;-58
2022/12/13 06:30:41;;;;;;;15.93;11.93;;;1.60;91.30;;;;;;5107420;28;20044;-58
2022/12/13 06:33:07;;;;;;;19.75;11.52;;;1.50;91.30;;;;;;5125878;28;20023;-58
2022/12/13 06:35:33;;;;;;;16.85;11.60;;;1.50;91.30;;;;;;5090530;28;20108;-58
2022/12/13 06:37:58;;;;;;;18.58;11.13;;;1.50;91.30;;;;;;5090699;28;20067;-58
2022/12/13 06:40:24;;;;;;;20.30;11.60;;;1.60;91.20;;;;;;5107507;28;20049;-58
2022/12/13 06:42:50;;;;;;;17.10;11.80;;;1.50;91.10;;;;;;5125328;28;20043;-58
2022/12/13 06:45:15;;;;;;;19.33;11.88;;;1.50;91.00;;;;;;5125541;28;20114;-58
2022/12/13 06:47:41;;;;;;;17.52;10.93;;;1.50;91.00;;;;;;5107191;28;20027;-58
2022/12/13 06:50:06;;;;;;;17.65;12.52;;;1.50;91.10;;;;;;5125722;28;20043;-58
2022/12/13 06:52:32;;;;;;;19.08;12.20;;;1.50;91.10;;;;;;5107095;28;20089;-58
2022/12/13 06:54:58;;;;;;;15.77;10.35;;;1.50;91.00;;;;;;5125567;28;20094;-59
2022/12/13 06:57:23;;;;;;;18.25;11.15;;;1.50;91.00;;;;;;5107154;28;20032;-58
2022/12/13 06:59:49;;;;;;;20.30;11.32;;;1.50;90.90;;;;;;5086545;28;20016;-58
2022/12/13 07:02:14;;;;;;;14.93;11.35;;;1.50;90.80;;;;;;5097341;28;20094;-58
2022/12/13 07:04:40;;;;;;;15.82;10.63;;;1.50;90.80;;;;;;5116666;28;20034;-58
2022/12/13 07:07:06;;;;;;;17.25;10.82;;;1.50;90.80;;;;;;5106854;28;20043;-58
2022/12/13 07:09:31;;;;;;;15.75;10.68;;;1.50;90.80;;;;;;5110932;28;20028;-59
2022/12/13 07:11:57;;;;;;;14.48;10.52;;;1.50;90.70;;;;;;5081359;28;20046;-59
2022/12/13 07:14:23;;;;;;;14.90;10.60;;;1.50;90.80;;;;;;5089336;28;20051;-58
2022/12/13 07:16:48;;;;;;;18.23;10.32;;;1.40;90.70;;;;;;5106549;28;20034;-59
2022/12/13 07:19:14;;;;;;;18.23;11.07;;;1.40;90.60;;;;;;5107035;28;20440;-58
2022/12/13 07:21:39;;;;;;;15.63;10.70;;;1.40;90.70;;;;;;5106329;28;20384;-58
2022/12/13 07:24:05;;;;;;;18.77;11.77;;;1.40;90.70;;;;;;5106750;28;20038;-58
2022/12/13 07:26:31;;;;;;;15.32;10.88;;;1.40;90.70;;;;;;5129190;28;20039;-59
2022/12/13 07:28:57;;;;;;;13.23;10.27;;;1.40;90.60;;;;;;5110992;28;20058;-58
2022/12/13 07:31:23;;;;;;;12.93;10.25;;;1.40;90.50;;;;;;5110948;28;20031;-58
2022/12/13 07:33:48;;;;;;;14.00;10.57;;;1.40;90.40;;;;;;5110947;28;20027;-59
2022/12/13 07:36:18;;;;;;;15.40;10.13;;;1.40;90.40;;;;;;5110921;28;20031;-58
2022/12/13 07:38:48;;;;;;;14.43;10.77;;;1.40;90.40;;;;;;5128848;28;20047;-58
2022/12/13 07:41:14;;;;;;;12.70;9.35;;;1.40;90.30;;;;;;5094253;28;20116;-58
2022/12/13 07:43:39;;;;;;;13.73;10.38;;;1.40;90.30;;;;;;5129224;28;20024;-58
2022/12/13 07:46:05;;;;;;;16.27;9.65;;;1.40;90.30;;;;;;5120993;28;20046;-58
2022/12/13 07:48:31;;;;;;;15.52;9.95;;;1.40;90.30;;;;;;5090279;28;20024;-58
2022/12/13 07:51:02;;;;;;;17.33;10.38;;;1.40;90.30;;;;;;5089850;28;20031;-58
2022/12/13 07:53:28;;;;;;;14.50;10.32;;;1.40;90.20;;;;;;5073717;28;20085;-58
2022/12/13 07:55:54;;;;;;;16.75;9.68;;;1.40;90.20;;;;;;5108484;28;20031;-58
2022/12/13 07:58:19;;;;;;;12.25;9.57;;;1.40;90.20;;;;;;5108304;28;20418;-58
2022/12/13 08:00:45;;;;;;;13.65;8.93;;;1.40;90.20;;;;;;5099265;28;20353;-59
2022/12/13 08:03:11;;;;;;;14.68;10.07;;;1.40;90.10;;;;;;5110568;28;20045;-58
2022/12/13 08:05:36;;;;;;;14.95;9.20;;;1.40;90.10;;;;;;5128663;28;20033;-58
2022/12/13 08:08:04;;;;;;;15.25;9.48;;;1.40;90.10;;;;;;5110372;28;20031;-58
2022/12/13 08:10:29;;;;;;;16.25;9.43;;;1.40;90.00;;;;;;5110580;28;20130;-58
2022/12/13 08:12:55;;;;;;;27.13;10.10;;;1.40;90.00;;;;;;5128814;28;20020;-58
2022/12/13 08:15:21;;;;;;;27.23;10.88;;;1.40;90.00;;;;;;5093249;28;20020;-58
2022/12/13 08:17:47;;;;;;;29.23;10.98;;;1.40;90.00;;;;;;5128849;28;20027;-58
2022/12/13 08:20:12;;;;;;;25.25;11.10;;;1.40;90.30;;;;;;5110267;28;20108;-58
2022/12/13 08:22:38;;;;;;;34.28;11.32;;;1.40;90.00;;;;;;5128572;28;20034;-58
2022/12/13 08:25:05;;;;;;;30.73;11.90;;;1.40;90.20;;;;;;5109919;28;20019;-58
2022/12/13 08:27:31;;;;;;;25.70;10.57;;;1.40;90.00;;;;;;5110324;28;20028;-59
2022/12/13 08:29:56;;;;;;;31.90;10.50;;;1.40;90.00;;;;;;5093167;28;20035;-58
2022/12/13 08:32:22;;;;;;;24.80;10.82;;;1.40;89.90;;;;;;5110133;28;20058;-58
2022/12/13 08:34:48;;;;;;;28.60;11.20;;;1.50;89.90;;;;;;5110100;28;20027;-58
2022/12/13 08:37:14;;;;;;;44.92;12.40;;;1.40;89.70;;;;;;5109121;28;20159;-58
2022/12/13 08:39:39;;;;;;;26.95;11.48;;;1.50;89.70;;;;;;5109058;28;20036;-58
2022/12/13 08:42:12;;;;;;;31.58;11.98;;;1.40;89.60;;;;;;5096876;28;20032;-58
2022/12/13 08:44:38;;;;;;;28.13;11.13;;;1.50;89.60;;;;;;5099127;28;20092;-59
2022/12/13 08:47:04;;;;;;;28.95;10.82;;;1.40;89.50;;;;;;5108510;28;20027;-58
2022/12/13 08:49:29;;;;;;;23.35;10.40;;;1.50;89.50;;;;;;5125289;28;20028;-58
2022/12/13 08:51:55;;;;;;;27.40;9.77;;;1.50;89.40;;;;;;5120719;28;20613;-58
2022/12/13 08:54:20;;;;;;;22.50;9.93;;;1.40;89.30;;;;;;5127779;28;20529;-58
2022/12/13 08:56:46;;;;;;;18.77;9.95;;;1.50;89.90;;;;;;5109306;28;20442;-58
2022/12/13 08:59:12;;;;;;;23.10;10.30;;;1.50;89.90;;;;;;5109376;28;20063;-58
2022/12/13 09:01:37;;;;;;;26.80;10.20;;;1.50;89.10;;;;;;5108621;28;20031;-59
2022/12/13 09:04:03;;;;;;;31.55;10.32;;;1.50;89.10;;;;;;5108310;28;20059;-58
2022/12/13 09:06:28;;;;;;;21.95;9.43;;;1.50;89.00;;;;;;5109168;28;20445;-58
2022/12/13 09:08:54;;;;;;;20.95;10.23;;;1.50;89.00;;;;;;5091556;28;20084;-58
2022/12/13 09:11:20;;;;;;;19.30;9.55;;;1.50;88.90;;;;;;5123618;28;20042;-58
2022/12/13 09:13:48;;;;;;;25.02;10.43;;;1.50;88.80;;;;;;5108417;28;20095;-58
2022/12/13 09:16:17;;;;;;;22.58;9.50;;;1.50;88.80;;;;;;5107802;28;20039;-59
2022/12/13 09:18:42;;;;;;;19.65;9.25;;;1.60;88.80;;;;;;5108760;28;20019;-58
2022/12/13 09:21:09;;;;;;;17.38;9.55;;;1.60;88.70;;;;;;5107739;28;20028;-58
2022/12/13 09:23:35;;;;;;;17.85;9.23;;;1.60;88.60;;;;;;5091264;28;20023;-58
2022/12/13 09:26:00;;;;;;;27.08;10.13;;;1.60;88.50;;;;;;5108693;28;20063;-58
2022/12/13 09:28:28;;;;;;;25.30;10.43;;;1.60;88.30;;;;;;5108832;28;20043;-58
2022/12/13 09:30:54;;;;;;;19.92;10.07;;;1.60;88.30;;;;;;5108641;28;20031;-58
2022/12/13 09:33:19;;;;;;;17.23;9.10;;;1.60;88.30;;;;;;5108599;28;20050;-58
2022/12/13 09:35:45;;;;;;;19.45;10.52;;;1.60;88.30;;;;;;5108608;28;20031;-58
2022/12/13 09:38:11;;;;;;;19.13;9.35;;;1.50;88.30;;;;;;5126815;28;20019;-59
2022/12/13 09:40:37;;;;;;;24.40;9.98;;;1.60;88.30;;;;;;5108336;28;20038;-58
2022/12/13 09:43:02;;;;;;;23.63;9.88;;;1.60;88.20;;;;;;5108690;28;20346;-58
2022/12/13 09:45:28;;;;;;;17.95;9.23;;;1.60;88.20;;;;;;5108401;28;20104;-58
2022/12/13 09:47:54;;;;;;;20.50;10.27;;;1.60;88.20;;;;;;5107236;28;20028;-58
2022/12/13 09:50:31;;;;;;;17.25;8.85;;;1.60;88.30;;;;;;5102202;28;20028;-58
2022/12/13 09:52:58;;;;;;;17.73;9.30;;;1.60;88.40;;;;;;5104945;28;20032;-58
2022/12/13 09:55:30;;;;;;;17.48;9.63;;;1.70;88.40;;;;;;5104946;28;20077;-58
2022/12/13 09:57:56;;;;;;;14.85;9.40;;;1.60;88.30;;;;;;5105587;28;20055;-58
2022/12/13 10:00:24;;;;;;;21.58;9.25;;;1.70;88.30;;;;;;5088084;28;20020;-58
2022/12/13 10:02:56;;;;;;;19.20;8.65;;;1.70;88.20;;;;;;5105201;28;20039;-58
2022/12/13 10:05:35;;;;;;;16.50;8.65;;;1.70;88.20;;;;;;5104898;28;20110;-58
2022/12/13 10:08:13;;;;;;;14.10;8.60;;;1.70;88.10;;;;;;5105201;28;20024;-58
2022/12/13 10:10:39;;;;;;;19.60;9.45;;;1.70;88.10;;;;;;5088874;28;20035;-59
2022/12/13 10:13:13;;;;;;;20.42;10.15;;;1.70;88.00;;;;;;5087697;28;20470;-59
2022/12/13 10:15:40;;;;;;;16.52;9.30;;;1.70;88.00;;;;;;5087476;28;20028;-58
2022/12/13 10:18:06;;;;;;;28.50;9.38;;;1.80;88.00;;;;;;5087423;28;20073;-58
2022/12/13 10:20:31;;;;;;;22.15;10.52;;;1.80;88.00;;;;;;5070369;28;20028;-59
2022/12/13 10:22:57;;;;;;;19.40;9.27;;;1.80;88.00;;;;;;5087250;28;20024;-58
2022/12/13 10:25:58;;;;;;;19.98;9.73;;;1.80;88.00;;;;;;5105701;28;20031;-58
2022/12/13 10:28:28;;;;;;;20.83;9.38;;;1.80;87.90;;;;;;5046195;28;20124;-58
2022/12/13 10:30:54;;;;;;;38.45;10.32;;;1.80;87.90;;;;;;5081837;28;20044;-58
2022/12/13 10:33:30;;;;;;;28.08;9.60;;;1.80;87.80;;;;;;5071024;28;20370;-59
2022/12/13 10:36:15;;;;;;;23.63;9.02;;;1.90;88.00;;;;;;5092115;28;20032;-58
2022/12/13 10:38:44;;;;;;;18.17;9.73;;;1.90;88.00;;;;;;5088553;28;20030;-58
2022/12/13 10:41:29;;;;;;;19.15;8.95;;;1.90;88.00;;;;;;5088155;28;20473;-58
2022/12/13 10:44:06;;;;;;;15.30;9.63;;;1.90;88.10;;;;;;5105086;28;20019;-58
2022/12/13 10:46:31;;;;;;;22.27;9.90;;;1.90;88.20;;;;;;5123403;28;20027;-58
2022/12/13 10:48:57;;;;;;;19.33;9.77;;;1.90;88.20;;;;;;5088014;28;20081;-58
2022/12/13 10:51:22;;;;;;;17.35;9.68;;;1.90;88.00;;;;;;5062059;28;20500;-59
2022/12/13 10:53:53;;;;;;;21.65;9.40;;;2.00;87.90;;;;;;5088730;28;20496;-58
2022/12/13 10:56:19;;;;;;;26.23;9.23;;;2.00;88.50;;;;;;5106878;28;20023;-58
2022/12/13 10:58:45;;;;;;;18.27;8.55;;;2.00;87.70;;;;;;5074172;28;20036;-58
2022/12/13 11:01:17;;;;;;;25.48;10.25;;;2.00;87.70;;;;;;5092670;28;20042;-58
2022/12/13 11:03:58;;;;;;;20.77;9.32;;;2.00;87.70;;;;;;5125234;28;20027;-58
2022/12/13 11:06:25;;;;;;;20.30;9.75;;;2.00;87.60;;;;;;5112636;28;20036;-58
2022/12/13 11:08:52;;;;;;;25.90;9.80;;;2.00;87.60;;;;;;5089074;28;20031;-58
2022/12/13 11:11:17;;;;;;;25.08;10.10;;;2.00;87.70;;;;;;5105216;28;20077;-58
2022/12/13 11:13:50;;;;;;;25.83;9.95;;;2.00;87.70;;;;;;5092985;28;20450;-58
2022/12/13 11:16:20;;;;;;;22.08;8.60;;;2.00;87.70;;;;;;5106672;28;20055;-59
2022/12/13 11:18:49;;;;;;;28.52;10.38;;;2.10;87.70;;;;;;5107331;28;20034;-58
2022/12/13 11:21:20;;;;;;;36.92;12.02;;;2.10;87.80;;;;;;5088160;28;20080;-58
2022/12/13 11:23:45;;;;;;;25.95;10.02;;;2.00;87.80;;;;;;5088980;28;20039;-58
2022/12/13 11:26:16;;;;;;;39.50;10.27;;;2.10;87.90;;;;;;5106370;28;20031;-58
2022/12/13 11:28:47;;;;;;;43.03;11.30;;;2.10;87.90;;;;;;5091975;28;20028;-58
2022/12/13 11:31:27;;;;;;;34.22;10.68;;;2.20;88.00;;;;;;5122339;28;20032;-58
2022/12/13 11:33:58;;;;;;;31.27;10.43;;;2.10;88.60;;;;;;5105613;28;20509;-58
2022/12/13 11:36:42;;;;;;;31.75;10.82;;;2.20;88.30;;;;;;5124318;28;20024;-58
2022/12/13 11:39:41;;;;;;;40.75;11.57;;;2.10;88.20;;;;;;5104330;28;20028;-58
2022/12/13 11:42:27;;;;;;;30.65;10.93;;;2.20;88.50;;;;;;5090048;28;20023;-59
2022/12/13 11:45:13;;;;;;;;;;;2.20;88.30;;;;;;5102443;28;20032;-58
2022/12/13 11:47:49;;;;;;;37.50;12.05;;;2.20;88.10;;;;;;5102180;28;19916;-58
2022/12/13 11:50:21;;;;;;;51.13;11.82;;;2.20;88.10;;;;;;5095215;28;20170;-59
2022/12/13 11:52:52;;;;;;;62.22;12.85;;;2.30;88.30;;;;;;5104952;28;20028;-58
2022/12/13 11:55:26;;;;;;;59.15;13.77;;;2.20;88.50;;;;;;5093873;28;20461;-58
2022/12/13 11:58:03;;;;;;;49.28;11.82;;;2.30;88.60;;;;;;5105708;28;20462;-59
2022/12/13 12:00:33;;;;;;;124.53;18.50;;;2.30;88.70;;;;;;5105017;28;20031;-58
2022/12/13 12:03:19;;;;;;;54.30;12.90;;;2.40;88.70;;;;;;5124456;28;20119;-58
2022/12/13 12:05:48;;;;;;;36.08;12.32;;;2.40;88.40;;;;;;5104469;28;20036;-58
2022/12/13 12:08:33;;;;;;;46.65;11.48;;;2.40;88.30;;;;;;5103988;28;20024;-57
2022/12/13 12:11:26;;;;;;;46.45;12.05;;;2.40;88.20;;;;;;5105814;28;20019;-58
2022/12/13 12:14:09;;;;;;;40.30;11.23;;;2.40;88.10;;;;;;5101502;28;20115;-59
2022/12/13 12:16:51;;;;;;;37.15;12.75;;;2.40;88.10;;;;;;5094193;28;20596;-59
2022/12/13 12:19:36;;;;;;;48.65;11.63;;;2.40;88.20;;;;;;5098826;28;20050;-58
2022/12/13 12:22:30;;;;;;;45.88;12.80;;;2.40;88.10;;;;;;5108158;28;20027;-59
2022/12/13 12:24:59;;;;;;;62.53;13.15;;;2.50;88.00;;;;;;5109289;28;20036;-58
2022/12/13 12:27:36;;;;;;;50.70;12.95;;;2.50;87.90;;;;;;5107091;28;20028;-58
2022/12/13 12:30:10;;;;;;;47.53;12.88;;;2.50;87.90;;;;;;5100621;28;20034;-58
2022/12/13 12:32:50;;;;;;;45.53;11.77;;;2.50;87.90;;;;;;5109246;28;20041;-58
2022/12/13 12:35:41;;;;;;;40.60;11.95;;;2.50;87.80;;;;;;5107018;28;20016;-58
2022/12/13 12:38:35;;;;;;;42.90;11.30;;;2.50;87.70;;;;;;5095533;28;20166;-58
2022/12/13 12:41:25;;;;;;;35.90;11.18;;;2.50;87.60;;;;;;5094031;28;20035;-58
2022/12/13 12:44:14;;;;;;;42.42;12.07;;;2.50;87.60;;;;;;5105750;28;20114;-59
2022/12/13 12:46:44;;;;;;;37.42;11.30;;;2.50;87.50;;;;;;5114889;28;20043;-58
2022/12/13 12:49:28;;;;;;;33.25;10.52;;;2.50;87.40;;;;;;5108263;28;20038;-58
2022/12/13 12:52:15;;;;;;;26.05;10.40;;;2.50;87.40;;;;;;5108169;28;20031;-58
2022/12/13 12:55:20;;;;;;;34.83;11.77;;;2.60;87.40;;;;;;5125964;28;20027;-58